createdAt,value
2019-05-28T00:01:10.722Z,7.50
2019-05-28T00:03:36.993Z,6.00
2019-05-28T00:06:03.467Z,6.60
2019-05-28T00:08:29.717Z,7.10
2019-05-28T00:10:56.020Z,6.62
2019-05-28T00:13:22.361Z,7.22
2019-05-28T00:15:48.715Z,8.53
2019-05-28T00:18:15.080Z,9.75
2019-05-28T00:20:41.405Z,9.13
2019-05-28T00:23:07.676Z,7.60
2019-05-28T00:25:33.915Z,9.60
2019-05-28T00:28:00.201Z,7.08
2019-05-28T00:30:26.468Z,7.72
2019-05-28T00:32:52.824Z,6.87
2019-05-28T00:35:19.266Z,7.87
2019-05-28T00:37:45.618Z,9.28
2019-05-28T00:40:12.370Z,7.20
2019-05-28T00:42:38.825Z,9.45
2019-05-28T00:45:07.016Z,10.95
2019-05-28T00:47:33.453Z,7.97
2019-05-28T00:49:59.778Z,9.68
2019-05-28T00:52:26.175Z,9.50
2019-05-28T00:54:52.525Z,5.72
2019-05-28T00:57:19.600Z,8.88
2019-05-28T00:59:46.670Z,9.75
2019-05-28T01:02:13.068Z,9.65
2019-05-28T01:04:39.424Z,8.60
2019-05-28T01:07:05.752Z,9.43
2019-05-28T01:09:32.036Z,11.43
2019-05-28T01:11:58.263Z,7.83
2019-05-28T01:14:24.725Z,9.60
2019-05-28T01:16:51.168Z,7.62
2019-05-28T01:19:17.648Z,9.50
2019-05-28T01:21:44.120Z,8.50
2019-05-28T01:24:10.795Z,8.40
2019-05-28T01:26:37.181Z,8.30
2019-05-28T01:29:03.618Z,9.08
2019-05-28T01:31:29.970Z,7.05
2019-05-28T01:33:56.245Z,9.33
2019-05-28T01:36:22.515Z,11.70
2019-05-28T01:38:48.792Z,8.35
2019-05-28T01:41:15.192Z,9.98
2019-05-28T01:43:41.493Z,11.25
2019-05-28T01:46:07.941Z,11.57
2019-05-28T01:48:34.258Z,8.85
2019-05-28T01:51:00.694Z,9.43
2019-05-28T01:53:26.931Z,9.05
2019-05-28T01:55:53.222Z,8.68
2019-05-28T01:58:19.523Z,8.05
2019-05-28T02:00:45.877Z,8.30
2019-05-28T02:03:12.416Z,7.67
2019-05-28T02:05:38.617Z,8.75
2019-05-28T02:08:04.996Z,10.90
2019-05-28T02:10:31.333Z,11.63
2019-05-28T02:12:57.696Z,11.12
2019-05-28T02:15:24.358Z,12.35
2019-05-28T02:17:50.644Z,9.53
2019-05-28T02:20:17.154Z,8.83
2019-05-28T02:22:43.490Z,8.93
2019-05-28T02:25:10.133Z,12.80
2019-05-28T02:27:36.497Z,14.30
2019-05-28T02:30:12.609Z,9.05
2019-05-28T02:32:38.909Z,7.72
2019-05-28T02:35:06.361Z,11.08
2019-05-28T02:37:32.740Z,8.95
2019-05-28T02:39:59.065Z,9.78
2019-05-28T02:42:25.440Z,8.95
2019-05-28T02:44:51.706Z,11.03
2019-05-28T02:47:18.057Z,7.12
2019-05-28T02:49:44.409Z,7.97
2019-05-28T02:52:11.674Z,9.98
2019-05-28T02:54:38.163Z,9.00
2019-05-28T02:57:04.607Z,11.83
2019-05-28T02:59:33.196Z,9.48
2019-05-28T03:02:01.734Z,7.67
2019-05-28T03:04:30.296Z,7.85
2019-05-28T03:07:00.448Z,8.10
2019-05-28T03:09:29.252Z,8.85
2019-05-28T03:11:55.557Z,7.95
2019-05-28T03:14:22.028Z,8.45
2019-05-28T03:16:52.105Z,8.85
2019-05-28T03:19:18.668Z,7.90
2019-05-28T03:21:46.632Z,8.28
2019-05-28T03:24:13.303Z,10.00
2019-05-28T03:26:39.815Z,9.25
2019-05-28T03:29:06.208Z,10.38
2019-05-28T03:31:32.678Z,10.90
2019-05-28T03:34:00.303Z,9.90
2019-05-28T03:36:29.860Z,8.95
2019-05-28T03:38:56.499Z,7.75
2019-05-28T03:41:22.865Z,7.00
2019-05-28T03:43:49.364Z,8.18
2019-05-28T03:46:15.642Z,9.80
2019-05-28T03:48:41.969Z,8.23
2019-05-28T03:51:08.216Z,8.30
2019-05-28T03:53:34.476Z,7.30
2019-05-28T03:56:00.649Z,7.97
2019-05-28T03:58:27.083Z,6.87
2019-05-28T04:00:53.345Z,7.62
2019-05-28T04:03:19.816Z,6.37
2019-05-28T04:05:46.087Z,9.10
2019-05-28T04:08:12.459Z,9.65
2019-05-28T04:10:38.858Z,8.85
2019-05-28T04:13:05.114Z,7.58
2019-05-28T04:15:32.550Z,9.23
2019-05-28T04:17:58.891Z,7.97
2019-05-28T04:20:25.233Z,9.43
2019-05-28T04:22:51.851Z,11.22
2019-05-28T04:25:18.301Z,8.33
2019-05-28T04:27:44.600Z,7.95
2019-05-28T04:30:11.498Z,9.23
2019-05-28T04:32:41.033Z,10.80
2019-05-28T04:35:06.210Z,7.70
2019-05-28T04:37:32.727Z,8.53
2019-05-28T04:39:59.014Z,7.25
2019-05-28T04:42:25.484Z,10.28
2019-05-28T04:44:51.854Z,9.68
2019-05-28T04:47:18.140Z,12.10
2019-05-28T04:49:44.548Z,8.28
2019-05-28T04:52:10.778Z,9.15
2019-05-28T04:54:37.029Z,7.42
2019-05-28T04:57:03.436Z,7.22
2019-05-28T04:59:29.770Z,7.70
2019-05-28T05:01:56.330Z,8.73
2019-05-28T05:04:22.636Z,5.92
2019-05-28T05:06:48.965Z,10.18
2019-05-28T05:09:15.417Z,9.13
2019-05-28T05:11:41.884Z,10.08
2019-05-28T05:14:08.143Z,10.35
2019-05-28T05:16:34.421Z,8.18
2019-05-28T05:19:00.672Z,6.70
2019-05-28T05:21:26.942Z,7.60
2019-05-28T05:23:53.409Z,7.25
2019-05-28T05:26:19.803Z,7.92
2019-05-28T05:28:46.083Z,9.88
2019-05-28T05:31:12.403Z,9.18
2019-05-28T05:33:38.698Z,8.05
2019-05-28T05:36:04.978Z,8.00
2019-05-28T05:38:31.524Z,11.60
2019-05-28T05:40:57.781Z,9.48
2019-05-28T05:43:24.277Z,7.45
2019-05-28T05:45:50.757Z,7.25
2019-05-28T05:48:20.304Z,5.80
2019-05-28T05:50:46.669Z,5.72
2019-05-28T05:53:13.037Z,3.90
2019-05-28T05:55:39.302Z,6.50
2019-05-28T05:58:05.583Z,5.90
2019-05-28T06:00:31.894Z,5.47
2019-05-28T06:02:58.149Z,5.55
2019-05-28T06:05:24.489Z,5.15
2019-05-28T06:07:51.092Z,4.92
2019-05-28T06:10:17.431Z,4.33
2019-05-28T06:12:43.689Z,6.15
2019-05-28T06:15:10.896Z,5.75
2019-05-28T06:17:37.426Z,5.03
2019-05-28T06:20:07.126Z,6.30
2019-05-28T06:22:33.725Z,4.92
2019-05-28T06:25:00.216Z,5.65
2019-05-28T06:27:26.685Z,5.42
2019-05-28T06:29:52.953Z,3.52
2019-05-28T06:32:19.386Z,5.00
2019-05-28T06:34:45.722Z,5.97
2019-05-28T06:37:12.147Z,3.35
2019-05-28T06:39:38.476Z,5.17
2019-05-28T06:42:04.955Z,4.37
2019-05-28T06:44:31.285Z,4.83
2019-05-28T06:46:57.956Z,4.67
2019-05-28T06:49:24.255Z,5.05
2019-05-28T06:51:50.626Z,5.72
2019-05-28T06:54:16.987Z,7.53
2019-05-28T06:56:43.256Z,6.55
2019-05-28T06:59:09.605Z,4.75
2019-05-28T07:01:36.733Z,3.55
2019-05-28T07:04:13.207Z,4.45
2019-05-28T07:06:31.686Z,8.05
2019-05-28T07:08:57.938Z,4.42
2019-05-28T07:11:24.445Z,5.85
2019-05-28T07:13:51.206Z,4.62
2019-05-28T07:16:17.500Z,5.85
2019-05-28T07:18:43.888Z,5.45
2019-05-28T07:21:10.314Z,5.12
2019-05-28T07:23:36.622Z,5.95
2019-05-28T07:26:02.997Z,5.15
2019-05-28T07:28:29.348Z,4.87
2019-05-28T07:30:56.046Z,3.00
2019-05-28T07:33:22.443Z,6.12
2019-05-28T07:35:48.838Z,4.87
2019-05-28T07:38:15.417Z,5.58
2019-05-28T07:40:41.771Z,5.22
2019-05-28T07:43:08.274Z,3.45
2019-05-28T07:45:37.522Z,3.08
2019-05-28T07:48:03.950Z,5.72
2019-05-28T07:50:30.515Z,5.47
2019-05-28T07:52:56.919Z,2.40
2019-05-28T07:55:23.392Z,3.20
2019-05-28T07:57:49.556Z,4.55
2019-05-28T08:00:19.704Z,6.65
2019-05-28T08:02:46.208Z,3.55
2019-05-28T08:05:17.068Z,2.87
2019-05-28T08:07:41.214Z,3.77
2019-05-28T08:10:08.009Z,3.35
2019-05-28T08:12:35.258Z,3.60
2019-05-28T08:15:02.109Z,4.20
2019-05-28T08:17:28.530Z,3.52
2019-05-28T08:19:54.891Z,3.92
2019-05-28T08:22:21.352Z,3.67
2019-05-28T08:24:47.923Z,4.60
2019-05-28T08:27:14.481Z,5.03
2019-05-28T08:29:40.850Z,5.15
2019-05-28T08:32:07.342Z,5.67
2019-05-28T08:34:33.712Z,4.37
2019-05-28T08:37:06.223Z,2.70
2019-05-28T08:39:33.363Z,2.95
2019-05-28T08:41:58.796Z,4.90
2019-05-28T08:44:32.786Z,3.15
2019-05-28T08:46:59.055Z,2.45
2019-05-28T08:49:25.592Z,4.95
2019-05-28T08:51:54.236Z,3.52
2019-05-28T08:54:20.610Z,5.30
2019-05-28T08:56:46.989Z,4.87
2019-05-28T08:59:13.574Z,4.40
2019-05-28T09:01:40.081Z,6.05
2019-05-28T09:04:06.860Z,3.92
2019-05-28T09:06:33.231Z,3.58
2019-05-28T09:08:59.481Z,4.17
2019-05-28T09:11:26.060Z,5.87
2019-05-28T09:13:52.421Z,4.92
2019-05-28T09:16:18.769Z,3.35
2019-05-28T09:18:45.217Z,4.37
2019-05-28T09:21:11.684Z,4.05
2019-05-28T09:23:37.950Z,4.70
2019-05-28T09:26:04.462Z,3.30
2019-05-28T09:28:31.404Z,4.20
2019-05-28T09:30:57.918Z,4.97
2019-05-28T09:33:24.286Z,3.52
2019-05-28T09:36:07.187Z,3.05
2019-05-28T09:38:19.493Z,3.75
2019-05-28T09:40:50.695Z,3.75
2019-05-28T09:43:13.920Z,3.33
2019-05-28T09:45:40.440Z,4.50
2019-05-28T09:48:07.000Z,3.80
2019-05-28T09:50:33.347Z,2.72
2019-05-28T09:52:59.901Z,3.33
2019-05-28T09:55:26.251Z,4.60
2019-05-28T09:57:52.901Z,5.00
2019-05-28T10:00:21.683Z,4.92
2019-05-28T10:02:48.974Z,4.28
2019-05-28T10:05:15.336Z,4.45
2019-05-28T10:07:41.673Z,3.35
2019-05-28T10:10:08.145Z,3.52
2019-05-28T10:12:34.701Z,4.75
2019-05-28T10:15:01.557Z,5.15
2019-05-28T10:17:28.064Z,4.55
2019-05-28T10:19:54.453Z,2.85
2019-05-28T10:22:20.963Z,3.15
2019-05-28T10:24:47.675Z,1.72
2019-05-28T10:27:14.224Z,4.30
2019-05-28T10:29:40.509Z,4.87
2019-05-28T10:32:06.975Z,2.27
2019-05-28T10:34:33.424Z,3.20
2019-05-28T10:36:59.829Z,2.95
2019-05-28T10:39:26.249Z,4.78
2019-05-28T10:41:52.779Z,4.20
2019-05-28T10:44:19.192Z,4.00
2019-05-28T10:46:45.639Z,2.72
2019-05-28T10:49:11.992Z,3.17
2019-05-28T10:51:38.339Z,2.67
2019-05-28T10:54:04.696Z,3.47
2019-05-28T10:56:31.504Z,4.17
2019-05-28T10:58:57.998Z,3.00
2019-05-28T11:01:24.423Z,4.37
2019-05-28T11:03:50.768Z,4.75
2019-05-28T11:06:17.378Z,4.20
2019-05-28T11:08:43.813Z,5.40
2019-05-28T11:11:10.238Z,5.17
2019-05-28T11:13:52.086Z,3.08
2019-05-28T11:16:05.454Z,4.10
2019-05-28T11:18:31.758Z,3.33
2019-05-28T11:20:58.164Z,5.10
2019-05-28T11:23:24.625Z,3.65
2019-05-28T11:25:51.276Z,5.85
2019-05-28T11:28:17.706Z,3.85
2019-05-28T11:30:44.103Z,3.72
2019-05-28T11:33:10.393Z,4.67
2019-05-28T11:35:36.895Z,3.62
2019-05-28T11:38:03.566Z,3.95
2019-05-28T11:40:30.301Z,3.12
2019-05-28T11:42:56.686Z,4.72
2019-05-28T11:45:23.397Z,4.08
2019-05-28T11:47:51.258Z,3.45
2019-05-28T11:50:18.203Z,3.72
2019-05-28T11:52:44.519Z,3.95
2019-05-28T11:55:12.891Z,4.05
2019-05-28T11:57:39.307Z,6.15
2019-05-28T12:00:06.332Z,3.80
2019-05-28T12:02:32.660Z,4.65
2019-05-28T12:04:58.975Z,3.17
2019-05-28T12:07:26.501Z,3.95
2019-05-28T12:09:52.986Z,4.03
2019-05-28T12:12:19.409Z,2.58
2019-05-28T12:14:45.715Z,2.22
2019-05-28T12:17:12.238Z,4.53
2019-05-28T12:19:38.722Z,4.15
2019-05-28T12:22:05.189Z,2.62
2019-05-28T12:24:31.704Z,2.83
2019-05-28T12:26:58.069Z,2.60
2019-05-28T12:29:24.454Z,3.87
2019-05-28T12:31:50.774Z,3.98
2019-05-28T12:34:17.305Z,4.45
2019-05-28T12:36:43.533Z,3.30
2019-05-28T12:39:10.869Z,2.50
2019-05-28T12:41:37.508Z,3.22
2019-05-28T12:44:03.922Z,4.30
2019-05-28T12:46:30.373Z,3.90
2019-05-28T12:48:56.785Z,3.50
2019-05-28T12:51:44.658Z,3.33
2019-05-28T12:54:11.277Z,4.00
2019-05-28T12:56:37.629Z,2.90
2019-05-28T12:59:04.144Z,3.33
2019-05-28T13:01:30.638Z,2.15
2019-05-28T13:03:56.957Z,4.60
2019-05-28T13:06:23.395Z,3.60
2019-05-28T13:08:49.884Z,2.67
2019-05-28T13:11:16.230Z,3.95
2019-05-28T13:13:42.690Z,4.58
2019-05-28T13:16:08.982Z,4.85
2019-05-28T13:18:35.229Z,2.67
2019-05-28T13:21:01.620Z,4.75
2019-05-28T13:23:28.141Z,3.55
2019-05-28T13:25:54.441Z,5.37
2019-05-28T13:28:20.789Z,4.00
2019-05-28T13:30:47.592Z,4.00
2019-05-28T13:33:13.900Z,3.40
2019-05-28T13:35:40.281Z,2.70
2019-05-28T13:38:23.477Z,3.35
2019-05-28T13:40:35.199Z,4.30
2019-05-28T13:43:01.829Z,2.55
2019-05-28T13:45:28.223Z,4.35
2019-05-28T13:47:54.762Z,4.08
2019-05-28T13:50:21.442Z,4.20
2019-05-28T13:52:47.941Z,4.53
2019-05-28T13:55:14.627Z,3.85
2019-05-28T13:57:41.088Z,2.62
2019-05-28T14:00:10.977Z,3.30
2019-05-28T14:02:37.563Z,4.72
2019-05-28T14:05:06.073Z,5.20
2019-05-28T14:07:32.403Z,2.58
2019-05-28T14:09:58.646Z,1.92
2019-05-28T14:12:25.105Z,3.27
2019-05-28T14:14:51.512Z,3.67
2019-05-28T14:17:17.964Z,3.95
2019-05-28T14:19:44.214Z,2.90
2019-05-28T14:22:10.869Z,6.03
2019-05-28T14:24:37.613Z,3.67
2019-05-28T14:27:04.037Z,5.53
2019-05-28T14:29:30.335Z,4.42
2019-05-28T14:31:56.681Z,3.12
2019-05-28T14:34:24.699Z,5.03
2019-05-28T14:36:51.083Z,3.80
2019-05-28T14:39:17.443Z,3.80
2019-05-28T14:41:43.805Z,4.28
2019-05-28T14:44:10.257Z,3.47
2019-05-28T14:46:36.820Z,4.50
2019-05-28T14:49:07.292Z,4.58
2019-05-28T14:51:31.292Z,3.70
2019-05-28T14:53:57.552Z,3.98
2019-05-28T14:56:23.817Z,3.92
2019-05-28T14:58:50.268Z,3.85
2019-05-28T15:01:16.805Z,5.58
2019-05-28T15:03:43.569Z,4.42
2019-05-28T15:06:10.028Z,3.22
2019-05-28T15:08:36.494Z,5.10
2019-05-28T15:11:03.151Z,3.65
2019-05-28T15:13:29.399Z,4.47
2019-05-28T15:15:55.993Z,4.60
2019-05-28T15:18:22.516Z,4.05
2019-05-28T15:20:48.944Z,4.62
2019-05-28T15:23:15.475Z,4.50
2019-05-28T15:25:41.776Z,9.08
2019-05-28T15:28:08.248Z,4.05
2019-05-28T15:30:34.684Z,3.80
2019-05-28T15:33:01.193Z,4.30
2019-05-28T15:35:27.467Z,3.52
2019-05-28T15:37:53.886Z,5.55
2019-05-28T15:40:20.532Z,3.83
2019-05-28T15:42:47.032Z,5.75
2019-05-28T15:45:16.028Z,4.30
2019-05-28T15:47:44.871Z,4.05
2019-05-28T15:50:11.775Z,4.15
2019-05-28T15:52:38.279Z,4.80
2019-05-28T15:55:04.878Z,4.50
2019-05-28T15:57:31.274Z,3.52
2019-05-28T15:59:57.551Z,4.10
2019-05-28T16:02:23.925Z,4.20
2019-05-28T16:04:50.482Z,3.62
2019-05-28T16:07:16.854Z,3.17
2019-05-28T16:09:55.712Z,4.47
2019-05-28T16:12:11.752Z,3.83
2019-05-28T16:14:38.269Z,4.22
2019-05-28T16:17:04.684Z,5.80
2019-05-28T16:19:34.048Z,4.35
2019-05-28T16:22:00.494Z,3.83
2019-05-28T16:24:27.102Z,4.53
2019-05-28T16:26:53.604Z,3.70
2019-05-28T16:29:19.963Z,3.75
2019-05-28T16:31:46.499Z,2.65
2019-05-28T16:34:12.810Z,2.52
2019-05-28T16:36:39.466Z,3.05
2019-05-28T16:39:07.749Z,3.05
2019-05-28T16:41:34.219Z,2.42
2019-05-28T16:44:00.508Z,3.67
2019-05-28T16:46:26.946Z,4.10
2019-05-28T16:48:53.181Z,5.42
2019-05-28T16:51:19.652Z,3.12
2019-05-28T16:53:46.172Z,4.67
2019-05-28T16:56:12.621Z,5.05
2019-05-28T16:58:39.045Z,4.22
2019-05-28T17:01:21.962Z,2.72
2019-05-28T17:03:34.689Z,5.25
2019-05-28T17:06:01.451Z,4.60
2019-05-28T17:08:27.950Z,4.47
2019-05-28T17:10:54.421Z,4.47
2019-05-28T17:13:20.769Z,2.62
2019-05-28T17:15:47.100Z,3.58
2019-05-28T17:18:13.614Z,3.15
2019-05-28T17:20:40.137Z,2.22
2019-05-28T17:23:06.548Z,2.87
2019-05-28T17:25:33.016Z,5.25
2019-05-28T17:27:59.437Z,3.85
2019-05-28T17:30:26.213Z,3.02
2019-05-28T17:32:52.802Z,1.45
2019-05-28T17:35:19.049Z,3.00
2019-05-28T17:37:45.791Z,2.47
2019-05-28T17:40:12.495Z,3.10
2019-05-28T17:42:39.065Z,3.05
2019-05-28T17:45:06.038Z,2.35
2019-05-28T17:47:41.370Z,3.27
2019-05-28T17:50:00.514Z,4.08
2019-05-28T17:52:27.009Z,5.72
2019-05-28T17:54:53.246Z,3.05
2019-05-28T17:57:19.505Z,1.87
2019-05-28T17:59:45.831Z,4.85
2019-05-28T18:02:12.097Z,2.87
2019-05-28T18:04:38.397Z,3.30
2019-05-28T18:07:04.785Z,0.95
2019-05-28T18:09:31.155Z,2.45
2019-05-28T18:11:57.575Z,3.15
2019-05-28T18:14:24.000Z,2.05
2019-05-28T18:16:50.566Z,2.87
2019-05-28T18:19:16.969Z,2.72
2019-05-28T18:21:43.366Z,2.70
2019-05-28T18:24:09.614Z,2.83
2019-05-28T18:26:35.897Z,2.35
2019-05-28T18:29:02.399Z,2.55
2019-05-28T18:31:28.869Z,2.02
2019-05-28T18:33:55.091Z,2.98
2019-05-28T18:36:21.364Z,2.30
2019-05-28T18:38:47.634Z,2.08
2019-05-28T18:41:21.651Z,2.83
2019-05-28T18:43:42.151Z,2.37
2019-05-28T18:46:08.552Z,2.52
2019-05-28T18:48:38.388Z,2.30
2019-05-28T18:51:03.245Z,2.27
2019-05-28T18:53:29.631Z,3.12
2019-05-28T18:55:55.984Z,1.92
2019-05-28T18:58:22.435Z,3.70
2019-05-28T19:00:48.863Z,1.87
2019-05-28T19:03:15.266Z,1.95
2019-05-28T19:05:41.624Z,4.20
2019-05-28T19:08:08.135Z,3.62
2019-05-28T19:10:34.473Z,4.03
2019-05-28T19:13:00.748Z,4.12
2019-05-28T19:15:27.265Z,3.58
2019-05-28T19:17:53.748Z,3.25
2019-05-28T19:20:20.356Z,2.52
2019-05-28T19:22:46.838Z,2.55
2019-05-28T19:25:13.339Z,2.98
2019-05-28T19:27:39.730Z,3.20
2019-05-28T19:30:08.793Z,3.42
2019-05-28T19:32:35.262Z,2.45
2019-05-28T19:35:07.035Z,4.22
2019-05-28T19:37:31.242Z,4.00
2019-05-28T19:39:57.658Z,2.70
2019-05-28T19:42:24.159Z,2.42
2019-05-28T19:44:50.367Z,3.17
2019-05-28T19:47:16.680Z,2.37
2019-05-28T19:49:43.148Z,2.27
2019-05-28T19:52:11.039Z,2.80
2019-05-28T19:54:37.738Z,2.27
2019-05-28T19:57:05.843Z,3.30
2019-05-28T19:59:34.019Z,3.25
2019-05-28T20:02:00.601Z,5.28
2019-05-28T20:04:27.126Z,4.15
2019-05-28T20:06:53.642Z,2.40
2019-05-28T20:09:20.044Z,2.70
2019-05-28T20:11:46.407Z,3.17
2019-05-28T20:14:14.396Z,3.02
2019-05-28T20:16:40.783Z,3.72
2019-05-28T20:19:07.047Z,3.77
2019-05-28T20:21:33.592Z,2.67
2019-05-28T20:24:00.103Z,1.98
2019-05-28T20:26:26.523Z,4.45
2019-05-28T20:29:07.412Z,3.12
2019-05-28T20:31:21.540Z,3.52
2019-05-28T20:33:47.961Z,2.87
2019-05-28T20:36:16.300Z,2.83
2019-05-28T20:38:42.663Z,4.62
2019-05-28T20:41:10.095Z,2.67
2019-05-28T20:43:36.521Z,2.02
2019-05-28T20:46:04.427Z,4.47
2019-05-28T20:48:30.904Z,2.35
2019-05-28T20:51:07.404Z,2.52
2019-05-28T20:53:35.631Z,1.50
2019-05-28T20:55:56.171Z,1.77
2019-05-28T20:58:37.411Z,2.42
2019-05-28T21:00:52.828Z,2.27
2019-05-28T21:03:19.705Z,3.10
2019-05-28T21:05:45.987Z,3.62
2019-05-28T21:08:12.360Z,3.22
2019-05-28T21:10:38.719Z,3.60
2019-05-28T21:13:04.931Z,4.87
2019-05-28T21:15:32.126Z,3.12
2019-05-28T21:17:59.533Z,2.92
2019-05-28T21:20:25.983Z,3.00
2019-05-28T21:22:53.804Z,3.33
2019-05-28T21:25:20.601Z,2.15
2019-05-28T21:27:46.883Z,4.08
2019-05-28T21:30:15.151Z,4.47
2019-05-28T21:32:45.055Z,2.98
2019-05-28T21:35:11.784Z,3.20
2019-05-28T21:37:38.070Z,5.47
2019-05-28T21:40:05.418Z,11.57
2019-05-28T21:42:31.917Z,5.85
2019-05-28T21:44:58.756Z,3.42
2019-05-28T21:47:25.054Z,4.67
2019-05-28T21:49:52.513Z,2.77
2019-05-28T21:52:18.969Z,2.35
2019-05-28T21:54:45.219Z,5.15
2019-05-28T21:57:11.509Z,3.72
2019-05-28T21:59:37.862Z,5.50
2019-05-28T22:02:04.918Z,3.05
2019-05-28T22:04:31.243Z,5.58
2019-05-28T22:06:57.640Z,4.90
2019-05-28T22:09:24.110Z,4.97
2019-05-28T22:11:50.459Z,4.78
2019-05-28T22:14:16.851Z,4.03
2019-05-28T22:16:43.116Z,3.35
2019-05-28T22:19:09.498Z,4.90
2019-05-28T22:21:35.870Z,3.22
2019-05-28T22:24:02.692Z,3.10
2019-05-28T22:26:29.040Z,3.25
2019-05-28T22:28:55.563Z,3.85
2019-05-28T22:31:21.951Z,5.80
2019-05-28T22:33:48.209Z,2.70
2019-05-28T22:36:14.546Z,3.55
2019-05-28T22:38:40.857Z,2.80
2019-05-28T22:41:07.115Z,2.72
2019-05-28T22:43:33.573Z,6.28
2019-05-28T22:46:01.143Z,4.67
2019-05-28T22:48:27.800Z,3.85
2019-05-28T22:50:54.232Z,2.67
2019-05-28T22:53:20.559Z,3.47
2019-05-28T22:55:46.931Z,5.03
2019-05-28T22:58:13.245Z,2.92
2019-05-28T23:00:39.609Z,4.33
2019-05-28T23:03:06.967Z,3.92
2019-05-28T23:05:33.485Z,4.28
2019-05-28T23:07:59.716Z,4.97
2019-05-28T23:10:26.206Z,2.10
2019-05-28T23:12:52.648Z,5.72
2019-05-28T23:15:19.014Z,3.37
2019-05-28T23:17:45.315Z,3.83
2019-05-28T23:20:13.332Z,3.50
2019-05-28T23:22:39.592Z,4.65
2019-05-28T23:25:07.498Z,2.15
2019-05-28T23:27:33.955Z,3.20
2019-05-28T23:30:00.403Z,2.45
2019-05-28T23:32:26.718Z,2.62
2019-05-28T23:34:56.198Z,3.87
2019-05-28T23:37:21.423Z,5.20
2019-05-28T23:39:48.029Z,5.22
2019-05-28T23:42:34.313Z,5.25
2019-05-28T23:45:00.682Z,3.50
2019-05-28T23:47:27.263Z,2.65
2019-05-28T23:49:53.617Z,3.35
2019-05-28T23:52:19.895Z,4.20
2019-05-28T23:54:46.303Z,4.28
2019-05-28T23:57:12.721Z,3.90
2019-05-28T23:59:39.149Z,4.85
